Time;durP1;ratioP1;P1;durP2;ratioP2;P2;SDS_P1;SDS_P2;PMS_P1;PMS_P2;Temp;Humidity;BMP_temperature;BMP_pressure;BME280_temperature;BME280_humidity;BME280_pressure;Samples;Min_cycle;Max_cycle;Signal;HPM_P1;HPM_P2
2022/02/20 00:02:15;;;;;;;12.90;7.70;;;;;;;19.46;36.55;100991.25;102761;1323;60562;-79
2022/02/20 00:05:44;;;;;;;12.80;7.30;;;;;;;19.45;36.65;100987.56;102658;1329;60390;-84
2022/02/20 00:08:33;;;;;;;14.30;7.20;;;;;;;19.45;36.59;100981.52;102530;1331;73094;-83
2022/02/20 00:11:14;;;;;;;11.00;7.40;;;;;;;19.45;36.76;100981.13;102833;1323;74305;-81
2022/02/20 00:14:03;;;;;;;12.20;7.30;;;;;;;19.45;36.75;100981.63;103178;1323;60587;-82
2022/02/20 00:16:52;;;;;;;12.50;7.40;;;;;;;19.45;36.66;100983.99;102916;1326;60949;-82
2022/02/20 00:19:47;;;;;;;12.60;7.60;;;;;;;19.44;36.60;100980.27;102612;1327;73260;-83
2022/02/20 00:22:32;;;;;;;13.40;7.60;;;;;;;19.44;36.66;100983.51;102847;1322;74910;-83
2022/02/20 00:25:41;;;;;;;;;;;;;;;;;;;;;
2022/02/20 00:28:27;;;;;;;13.00;7.50;;;;;;;19.44;36.67;100976.38;103191;1323;61012;-82
2022/02/20 00:31:33;;;;;;;12.00;7.30;;;;;;;19.43;36.83;100973.35;103074;1323;73053;-79
2022/02/20 00:34:11;;;;;;;12.50;7.80;;;;;;;19.43;36.68;100970.51;103174;1323;75087;-82
2022/02/20 00:37:10;;;;;;;11.50;7.60;;;;;;;19.43;36.65;100964.59;103232;1322;61673;-82
2022/02/20 00:40:05;;;;;;;13.70;8.10;;;;;;;19.43;36.71;100968.19;102649;1329;60557;-83
2022/02/20 00:43:07;;;;;;;12.50;7.50;;;;;;;19.43;36.62;100970.88;102555;1329;72995;-79
2022/02/20 00:46:04;;;;;;;12.70;7.50;;;;;;;19.43;36.69;100971.80;102709;1328;75141;-84
2022/02/20 00:48:51;;;;;;;;;;;;;;;;;;;;;
2022/02/20 00:51:42;;;;;;;12.60;8.10;;;;;;;19.42;36.70;100976.45;102667;1329;61625;-83
2022/02/20 00:54:54;;;;;;;13.30;8.20;;;;;;;19.42;36.72;100975.56;102832;1326;74179;-84
2022/02/20 00:58:13;;;;;;;11.60;7.80;;;;;;;19.42;36.74;100974.17;102377;1332;75380;-80
2022/02/20 01:01:05;;;;;;;12.60;7.60;;;;;;;19.42;36.69;100985.05;102439;1332;60587;-86
2022/02/20 01:03:55;;;;;;;13.60;7.90;;;;;;;19.42;36.69;100988.43;102513;1332;61473;-83
2022/02/20 01:06:51;;;;;;;12.70;7.60;;;;;;;19.42;36.67;100978.80;102302;1332;72871;-83
2022/02/20 01:09:36;;;;;;;12.20;7.60;;;;;;;19.42;36.67;100978.98;102489;1331;74099;-82
2022/02/20 01:12:34;;;;;;;12.40;7.60;;;;;;;19.42;36.73;100980.59;102357;1332;60643;-87
2022/02/20 01:15:22;;;;;;;15.00;8.20;;;;;;;19.42;36.69;100978.11;102362;1334;60877;-83
2022/02/20 01:18:04;;;;;;;12.10;7.60;;;;;;;19.41;36.72;100979.20;102544;1329;71835;-83
2022/02/20 01:21:11;;;;;;;13.00;7.80;;;;;;;19.41;36.70;100981.34;103390;1319;75087;-86
2022/02/20 01:23:55;;;;;;;;;;;;;;;;;;;;;
2022/02/20 01:26:38;;;;;;;13.10;8.50;;;;;;;19.40;36.82;100982.27;103350;1319;60490;-83
2022/02/20 01:29:47;;;;;;;13.70;8.60;;;;;;;19.41;36.73;100977.13;104024;1313;72885;-82
2022/02/20 01:32:39;;;;;;;13.00;8.30;;;;;;;19.41;36.80;100974.05;103827;1318;74933;-81
2022/02/20 01:35:25;;;;;;;14.90;8.80;;;;;;;19.41;36.82;100969.60;104015;1312;60923;-83
2022/02/20 01:41:35;;;;;;;12.80;8.50;;;;;;;19.39;36.80;100962.92;103851;1318;72283;-80
2022/02/20 01:44:21;;;;;;;14.20;8.60;;;;;;;19.39;36.87;100958.26;103623;1319;74073;-81
2022/02/20 01:47:15;;;;;;;12.30;8.30;;;;;;;19.39;36.92;100962.70;103592;1318;61410;-83
2022/02/20 01:50:01;;;;;;;14.20;8.10;;;;;;;19.39;36.76;100967.89;103840;1318;61722;-82
2022/02/20 01:52:49;;;;;;;13.10;7.80;;;;;;;19.39;36.84;100973.25;103592;1318;72908;-83
2022/02/20 01:55:18;;;;;;;13.50;8.50;;;;;;;19.39;36.75;100980.73;103065;1324;74209;-83
2022/02/20 01:58:12;;;;;;;12.40;8.40;;;;;;;19.39;36.78;100986.11;102981;1325;61580;-81
2022/02/20 02:01:01;;;;;;;12.70;8.40;;;;;;;19.39;36.79;100985.95;103032;1325;60355;-84
2022/02/20 02:03:39;;;;;;;13.50;7.90;;;;;;;19.38;36.89;100985.63;103032;1326;73874;-83
2022/02/20 02:06:31;;;;;;;13.00;8.20;;;;;;;19.38;36.81;100976.88;103056;1324;75364;-84
2022/02/20 02:09:39;;;;;;;14.10;8.30;;;;;;;19.38;36.72;100973.88;103062;1321;60535;-83
2022/02/20 02:12:17;;;;;;;;;;;;;;;;;;;;;
2022/02/20 02:15:38;;;;;;;16.80;8.80;;;;;;;19.38;36.85;100983.33;102843;1326;73897;-84
2022/02/20 02:18:45;;;;;;;;;;;;;;;;;;;;;
2022/02/20 02:21:39;;;;;;;12.50;8.50;;;;;;;19.37;36.92;100990.72;103408;1320;60595;-83
2022/02/20 02:24:55;;;;;;;;;;;;;;;;;;;;;
2022/02/20 02:28:09;;;;;;;13.60;8.30;;;;;;;19.37;36.90;101005.54;103250;1320;73186;-82
2022/02/20 02:31:24;;;;;;;14.20;7.70;;;;;;;19.37;36.90;101006.92;103365;1322;74413;-81
2022/02/20 02:34:16;;;;;;;12.70;7.70;;;;;;;19.37;36.85;101016.59;102678;1329;60500;-82
2022/02/20 02:37:12;;;;;;;14.70;8.70;;;;;;;19.36;36.82;101023.94;102579;1328;60523;-81
2022/02/20 02:40:12;;;;;;;14.80;8.30;;;;;;;19.37;36.86;101028.73;102479;1332;73681;-81
2022/02/20 02:43:19;;;;;;;12.10;7.80;;;;;;;19.37;36.85;101030.88;102340;1332;73802;-83
2022/02/20 02:46:13;;;;;;;12.30;7.90;;;;;;;19.37;36.79;101033.20;102004;1338;60337;-83
2022/02/20 02:49:05;;;;;;;;;;;;;;;;;;;;;
2022/02/20 02:51:55;;;;;;;13.00;8.30;;;;;;;19.36;36.75;101033.40;102371;1332;72865;-84
2022/02/20 02:54:52;;;;;;;;;;;;;;;;;;;;;
2022/02/20 02:57:54;;;;;;;14.70;8.80;;;;;;;19.36;36.85;101039.16;101784;1344;60648;-81
2022/02/20 03:00:50;;;;;;;;;;;;;;;;;;;;;
2022/02/20 03:03:24;;;;;;;13.20;8.30;;;;;;;19.36;36.81;101041.27;101725;1344;74070;-85
2022/02/20 03:06:45;;;;;;;13.20;7.40;;;;;;;19.35;36.90;101037.39;101676;1344;75249;-84
2022/02/20 03:09:38;;;;;;;13.70;8.90;;;;;;;19.35;36.86;101035.98;101755;1344;60613;-86
2022/02/20 03:12:04;;;;;;;13.90;8.60;;;;;;;19.35;36.90;101038.13;101878;1338;61704;-84
2022/02/20 03:15:08;;;;;;;14.80;9.20;;;;;;;19.35;36.77;101044.02;101831;1341;72176;-82
2022/02/20 03:17:59;;;;;;;14.50;8.30;;;;;;;19.35;36.82;101045.64;101989;1338;74101;-86
2022/02/20 03:20:56;;;;;;;;;;;;;;;;;;;;;
2022/02/20 03:23:48;;;;;;;13.90;8.50;;;;;;;19.35;36.81;101058.66;102263;1332;61700;-82
2022/02/20 03:26:27;;;;;;;12.20;8.30;;;;;;;19.34;36.90;101053.16;102530;1332;73861;-82
2022/02/20 03:29:20;;;;;;;13.10;8.10;;;;;;;19.34;36.95;101053.73;102501;1332;75331;-85
2022/02/20 03:32:06;;;;;;;15.80;9.00;;;;;;;19.33;36.93;101047.16;102525;1326;60604;-84
2022/02/20 03:35:25;;;;;;;;;;;;;;;;;;;;;
2022/02/20 03:38:22;;;;;;;;;;;;;;;;;;;;;
2022/02/20 03:41:09;;;;;;;14.90;9.20;;;;;;;19.33;36.94;101040.41;102430;1332;75180;-84
2022/02/20 03:43:49;;;;;;;16.00;9.50;;;;;;;19.33;36.88;101042.00;102457;1333;60632;-82
2022/02/20 03:46:38;;;;;;;16.70;9.20;;;;;;;19.33;36.86;101045.40;102500;1332;60493;-84
2022/02/20 03:49:16;;;;;;;14.70;9.10;;;;;;;19.33;36.84;101047.53;102604;1326;73021;-83
2022/02/20 03:51:54;;;;;;;13.90;8.90;;;;;;;19.33;36.87;101053.27;102942;1326;75321;-82
2022/02/20 03:54:51;;;;;;;15.20;10.10;;;;;;;19.32;36.93;101051.34;102798;1326;60426;-84
2022/02/20 03:57:49;;;;;;;14.50;9.00;;;;;;;19.32;36.82;101059.38;102759;1326;60662;-83
2022/02/20 04:00:43;;;;;;;14.80;9.30;;;;;;;19.32;36.83;101054.75;102759;1326;72863;-83
2022/02/20 04:03:32;;;;;;;13.70;9.00;;;;;;;19.31;36.87;101064.23;102782;1325;74253;-83
2022/02/20 04:06:28;;;;;;;14.80;9.20;;;;;;;19.31;36.98;101063.52;102795;1325;60574;-82
2022/02/20 04:09:18;;;;;;;;;;;;;;;;;;;;;
2022/02/20 04:12:15;;;;;;;13.30;8.60;;;;;;;19.31;36.91;101069.98;103163;1320;71703;-85
2022/02/20 04:15:13;;;;;;;;;;;;;;;;;;;;;
2022/02/20 04:18:44;;;;;;;17.20;9.60;;;;;;;19.30;36.88;101080.35;104017;1312;60425;-82
2022/02/20 04:21:21;;;;;;;13.40;9.20;;;;;;;19.30;36.88;101086.96;104193;1312;60277;-84
2022/02/20 04:24:11;;;;;;;14.30;9.60;;;;;;;19.30;36.86;101089.64;104352;1312;72738;-84
2022/02/20 04:29:59;;;;;;;;;;;;;;;;;;;;;
2022/02/20 04:32:50;;;;;;;14.10;9.30;;;;;;;19.29;36.81;101088.80;102533;1331;60021;-84
2022/02/20 04:35:48;;;;;;;14.90;9.20;;;;;;;19.29;36.87;101091.13;102510;1332;72312;-82
2022/02/20 04:38:39;;;;;;;14.40;9.50;;;;;;;19.29;36.81;101087.19;102450;1332;74846;-85
2022/02/20 04:41:33;;;;;;;14.80;10.00;;;;;;;19.29;36.89;101084.88;102273;1335;60536;-83
2022/02/20 04:44:32;;;;;;;;;;;;;;;;;;;;;
2022/02/20 04:47:32;;;;;;;16.00;9.30;;;;;;;19.29;36.87;101088.46;101879;1342;75349;-81
2022/02/20 04:50:38;;;;;;;;;;;;;;;19.29;36.85;101086.34;101900;1342;72854;-85
2022/02/20 04:53:29;;;;;;;16.20;9.30;;;;;;;19.26;36.85;101094.52;102254;1335;61188;-82
2022/02/20 04:56:46;;;;;;;14.30;9.30;;;;;;;19.26;36.89;101101.81;101947;1339;60396;-85
2022/02/20 04:59:17;;;;;;;16.50;9.90;;;;;;;19.27;36.80;101106.41;101780;1345;73906;-84
2022/02/20 05:02:10;;;;;;;16.20;10.00;;;;;;;19.27;36.84;101103.02;101787;1345;75570;-82
2022/02/20 05:04:56;;;;;;;14.90;9.60;;;;;;;19.26;36.85;101109.33;101604;1347;63542;-83
2022/02/20 05:08:15;;;;;;;;;;;;;;;;;;;;;
2022/02/20 05:11:02;;;;;;;13.70;9.40;;;;;;;19.26;36.84;101113.77;101545;1347;71768;-83
2022/02/20 05:13:54;;;;;;;14.50;9.60;;;;;;;19.27;36.83;101123.02;101650;1347;74120;-83
2022/02/20 05:16:52;;;;;;;15.60;9.60;;;;;;;19.26;36.88;101119.83;101565;1348;62206;-82
2022/02/20 05:19:58;;;;;;;14.50;9.60;;;;;;;19.26;36.82;101128.74;101592;1347;61438;-83
2022/02/20 05:22:43;;;;;;;15.50;9.80;;;;;;;19.26;36.89;101136.42;101673;1344;73880;-84
2022/02/20 05:25:32;;;;;;;14.40;9.00;;;;;;;19.26;36.84;101138.58;101696;1344;74215;-86
2022/02/20 05:28:45;;;;;;;16.20;9.20;;;;;;;19.26;36.90;101139.84;101689;1344;60555;-83
2022/02/20 05:31:31;;;;;;;16.00;9.70;;;;;;;19.26;36.93;101137.32;101715;1345;60418;-80
2022/02/20 05:34:19;;;;;;;15.60;9.30;;;;;;;19.27;36.89;101144.79;101771;1344;73952;-83
2022/02/20 05:36:58;;;;;;;15.50;9.40;;;;;;;19.26;36.93;101149.29;101857;1338;74603;-82
2022/02/20 05:39:45;;;;;;;15.30;8.90;;;;;;;19.26;36.90;101157.11;101875;1341;60468;-85
2022/02/20 05:43:11;;;;;;;14.30;9.40;;;;;;;19.27;36.90;101157.65;101883;1338;62423;-83
2022/02/20 05:46:07;;;;;;;15.30;9.10;;;;;;;19.26;36.90;101166.22;102232;1335;72811;-82
2022/02/20 05:49:05;;;;;;;;;;;;;;;;;;;;;
2022/02/20 05:51:47;;;;;;;13.10;8.70;;;;;;;19.26;36.86;101184.60;102438;1332;61511;-84
2022/02/20 05:54:35;;;;;;;15.00;9.00;;;;;;;19.26;36.93;101192.81;102537;1332;61421;-82
2022/02/20 05:57:44;;;;;;;13.40;8.50;;;;;;;19.27;36.94;101196.01;102690;1326;71896;-82
2022/02/20 06:00:32;;;;;;;13.60;8.80;;;;;;;19.26;36.99;101199.41;103092;1321;73874;-82
2022/02/20 06:03:29;;;;;;;11.70;8.20;;;;;;;19.27;36.91;101196.73;103216;1322;61380;-83
2022/02/20 06:06:18;;;;;;;14.30;8.70;;;;;;;19.26;36.98;101202.26;102656;1329;60387;-82
2022/02/20 06:09:13;;;;;;;12.60;7.80;;;;;;;19.27;36.97;101201.70;102567;1329;73916;-83
2022/02/20 06:12:08;;;;;;;12.90;8.00;;;;;;;19.27;37.03;101201.53;102648;1329;75093;-83
2022/02/20 06:15:05;;;;;;;;;;;;;;;;;;;;;
2022/02/20 06:17:54;;;;;;;12.90;8.00;;;;;;;19.27;37.01;101202.60;102567;1329;61743;-85
2022/02/20 06:20:33;;;;;;;11.40;8.00;;;;;;;19.26;36.99;101200.84;102673;1326;72938;-84
2022/02/20 06:23:59;;;;;;;12.20;7.70;;;;;;;19.27;36.98;101205.09;102779;1326;72800;-79
2022/02/20 06:26:50;;;;;;;11.20;7.50;;;;;;;19.26;37.02;101204.41;103044;1322;61732;-83
2022/02/20 06:29:36;;;;;;;11.30;8.00;;;;;;;19.27;36.99;101203.84;103352;1320;61719;-84
2022/02/20 06:32:25;;;;;;;13.90;8.00;;;;;;;19.27;37.12;101205.48;103257;1323;73931;-83
2022/02/20 06:35:27;;;;;;;11.50;6.90;;;;;;;19.27;37.10;101209.20;103222;1322;73900;-82
2022/02/20 06:38:03;;;;;;;;;;;;;;;;;;;;;
2022/02/20 06:40:45;;;;;;;10.50;7.20;;;;;;;19.27;37.05;101211.17;103763;1314;60399;-85
2022/02/20 06:43:37;;;;;;;10.90;7.40;;;;;;;19.27;37.11;101216.52;104319;1306;72811;-81
2022/02/20 06:46:23;;;;;;;12.50;7.60;;;;;;;19.27;37.06;101223.64;100756;1306;5522533;-85
2022/02/20 06:49:21;;;;;;;13.00;7.50;;;;;;;19.27;37.12;101223.80;104695;1306;60952;-83
2022/02/20 06:53:11;;;;;;;12.70;7.30;;;;;;;19.26;37.01;101215.84;104296;1313;60555;-86
2022/02/20 06:55:45;;;;;;;;;;;;;;;;;;;;;
2022/02/20 06:58:58;;;;;;;13.10;6.70;;;;;;;19.26;36.99;101215.66;104273;1312;75050;-81
2022/02/20 07:02:18;;;;;;;10.70;7.00;;;;;;;19.26;37.11;101218.86;103680;1319;60715;-83
2022/02/20 07:04:59;;;;;;;10.40;6.80;;;;;;;19.26;37.03;101214.04;103433;1320;60494;-83
2022/02/20 07:07:55;;;;;;;12.40;7.40;;;;;;;19.27;36.97;101220.97;103575;1320;73054;-85
2022/02/20 07:11:04;;;;;;;10.10;6.70;;;;;;;19.27;37.10;101217.23;103403;1320;75405;-85
2022/02/20 07:13:43;;;;;;;10.50;6.50;;;;;;;19.27;37.03;101215.63;102739;1326;60962;-84
2022/02/20 07:17:26;;;;;;;;;;;;;;;19.27;36.99;101210.27;102787;1326;60725;-80
2022/02/20 07:19:55;;;;;;;11.10;6.30;;;;;;;19.24;37.05;101204.70;102673;1329;74205;-83
2022/02/20 07:23:14;;;;;;;9.00;6.20;;;;;;;19.25;36.99;101200.93;102571;1329;71736;-85
2022/02/20 07:26:12;;;;;;;10.00;6.70;;;;;;;19.25;37.03;101202.00;102751;1326;60561;-82
2022/02/20 07:28:54;;;;;;;8.40;6.00;;;;;;;19.25;36.97;101195.01;102303;1329;61751;-84
2022/02/20 07:32:28;;;;;;;9.30;6.30;;;;;;;19.25;36.99;101186.63;102569;1329;72514;-83
2022/02/20 07:35:05;;;;;;;10.70;6.70;;;;;;;19.25;37.04;101180.74;102328;1334;74014;-87
2022/02/20 07:38:05;;;;;;;10.10;6.70;;;;;;;19.25;36.99;101180.73;102413;1329;60670;-81
2022/02/20 07:40:58;;;;;;;9.90;5.90;;;;;;;19.25;36.97;101179.86;102760;1327;61496;-83
2022/02/20 07:43:53;;;;;;;9.90;6.30;;;;;;;19.25;37.01;101182.18;102721;1327;73775;-83
2022/02/20 07:46:40;;;;;;;10.00;6.40;;;;;;;19.25;36.94;101182.91;102711;1329;75614;-83
2022/02/20 07:49:40;;;;;;;11.40;6.50;;;;;;;19.24;37.12;101186.52;102559;1329;60600;-82
2022/02/20 07:52:40;;;;;;;;;;;;;;;;;;;;;
2022/02/20 07:55:35;;;;;;;10.00;6.30;;;;;;;19.24;37.04;101186.73;102670;1328;72803;-84
2022/02/20 07:58:24;;;;;;;10.40;6.00;;;;;;;19.24;37.03;101190.42;102540;1329;72115;-84
2022/02/20 08:01:11;;;;;;;10.30;6.30;;;;;;;19.24;37.08;101187.77;102506;1332;61562;-81
2022/02/20 08:03:49;;;;;;;8.70;5.80;;;;;;;19.24;37.06;101187.77;102453;1332;60464;-86
2022/02/20 08:06:54;;;;;;;;;;;;;;;;;;;;;
2022/02/20 08:09:54;;;;;;;;;;;;;;;;;;;;;
2022/02/20 08:12:43;;;;;;;9.60;5.90;;;;;;;19.23;37.16;101185.49;103570;1317;60584;-83
2022/02/20 08:15:23;;;;;;;11.80;6.10;;;;;;;19.23;37.15;101184.96;104098;1317;60627;-85
2022/02/20 08:18:29;;;;;;;9.40;6.20;;;;;;;19.22;37.15;101188.73;103552;1317;71452;-83
2022/02/20 08:21:05;;;;;;;8.70;5.90;;;;;;;19.23;37.24;101190.88;103109;1323;73117;-84
2022/02/20 08:24:12;;;;;;;8.20;5.90;;;;;;;19.22;37.14;101189.99;102817;1323;60496;-85
2022/02/20 08:27:18;;;;;;;9.60;5.90;;;;;;;19.22;37.26;101195.40;102933;1323;60497;-82
2022/02/20 08:29:54;;;;;;;8.40;5.60;;;;;;;19.22;37.25;101195.58;102752;1327;73881;-84
2022/02/20 08:33:06;;;;;;;8.80;5.30;;;;;;;19.22;37.20;101190.40;102815;1326;72799;-85
2022/02/20 08:35:42;;;;;;;9.20;5.80;;;;;;;19.21;37.26;101191.30;102582;1329;61356;-88
2022/02/20 08:38:59;;;;;;;8.50;5.40;;;;;;;19.22;37.36;101186.46;102589;1329;60656;-79
2022/02/20 08:41:45;;;;;;;9.00;5.60;;;;;;;19.22;37.29;101180.92;102581;1329;73034;-86
2022/02/20 08:44:39;;;;;;;8.20;5.60;;;;;;;19.21;37.33;101167.58;102734;1329;75125;-82
2022/02/20 08:47:38;;;;;;;9.60;5.80;;;;;;;19.22;37.36;101161.65;102607;1329;61605;-83
2022/02/20 08:50:58;;;;;;;8.50;5.60;;;;;;;19.21;37.28;101153.48;102697;1329;60492;-87
2022/02/20 08:53:38;;;;;;;8.10;5.40;;;;;;;19.22;37.39;101146.48;102315;1335;72786;-86
2022/02/20 08:56:26;;;;;;;;;;;;;;;;;;;;;
2022/02/20 08:59:15;;;;;;;9.30;5.40;;;;;;;19.22;37.39;101134.34;102187;1332;60591;-82
2022/02/20 09:02:10;;;;;;;8.50;5.50;;;;;;;19.22;37.35;101136.17;102326;1335;60612;-82
2022/02/20 09:05:16;;;;;;;8.10;5.60;;;;;;;19.21;37.42;101129.43;102441;1329;72944;-85
2022/02/20 09:08:02;;;;;;;9.10;5.40;;;;;;;19.22;37.39;101133.84;102582;1329;75064;-84
2022/02/20 09:11:08;;;;;;;;;;;;;;;;;;;;;
2022/02/20 09:13:54;;;;;;;7.50;5.00;;;;;;;19.21;37.44;101130.13;102782;1326;60488;-82
2022/02/20 09:17:00;;;;;;;8.30;5.00;;;;;;;19.21;37.49;101132.79;102761;1326;71447;-78
2022/02/20 09:20:02;;;;;;;7.90;5.20;;;;;;;19.21;37.58;101127.81;102879;1326;73818;-84
2022/02/20 09:22:46;;;;;;;9.20;5.20;;;;;;;19.21;37.57;101122.82;102893;1324;60527;-84
2022/02/20 09:25:43;;;;;;;;;;;;;;;;;;;;;
2022/02/20 09:28:29;;;;;;;7.60;5.10;;;;;;;19.21;37.61;101128.70;102809;1326;72733;-82
2022/02/20 09:31:24;;;;;;;8.20;5.10;;;;;;;19.20;37.60;101126.61;102770;1326;73121;-83
2022/02/20 09:34:06;;;;;;;9.00;5.10;;;;;;;19.21;37.63;101131.20;102800;1326;61522;-79
2022/02/20 09:36:54;;;;;;;;;;;;;;;;;;;;;
2022/02/20 09:39:49;;;;;;;8.50;4.90;;;;;;;19.21;37.70;101133.89;103089;1322;72798;-82
2022/02/20 09:42:35;;;;;;;8.30;4.90;;;;;;;19.20;37.69;101129.98;103062;1323;74326;-85
2022/02/20 09:45:10;;;;;;;7.70;4.50;;;;;;;19.20;37.81;101120.36;103294;1322;60641;-81
2022/02/20 09:48:12;;;;;;;;;;;;;;;;;;;;;
2022/02/20 09:51:12;;;;;;;;;;;;;;;;;;;;;
2022/02/20 09:54:38;;;;;;;7.50;4.70;;;;;;;19.19;37.92;101119.52;103221;1323;71674;-82
2022/02/20 09:57:45;;;;;;;7.90;4.60;;;;;;;19.19;37.95;101119.72;103273;1323;60737;-84
2022/02/20 10:00:39;;;;;;;8.90;4.80;;;;;;;19.19;37.97;101118.80;102691;1326;61543;-82
2022/02/20 10:04:18;;;;;;;7.00;4.40;;;;;;;19.19;37.92;101117.75;102743;1326;71710;-85
2022/02/20 10:07:11;;;;;;;8.10;4.90;;;;;;;19.19;38.02;101116.33;102496;1332;74946;-79
2022/02/20 10:10:25;;;;;;;6.30;4.20;;;;;;;19.19;38.07;101112.58;102768;1326;61376;-84
2022/02/20 10:13:29;;;;;;;6.00;4.40;;;;;;;19.19;38.04;101107.05;102824;1326;60861;-83
2022/02/20 10:16:00;;;;;;;7.40;4.50;;;;;;;19.20;38.21;101113.06;102775;1325;74011;-83
2022/02/20 10:18:46;;;;;;;7.60;4.60;;;;;;;19.20;38.14;101114.67;102703;1326;75530;-81
2022/02/20 10:21:35;;;;;;;8.20;4.90;;;;;;;19.20;38.15;101112.52;102432;1332;61928;-83
2022/02/20 10:24:40;;;;;;;;;;;;;;;;;;;;;
2022/02/20 10:27:25;;;;;;;7.60;4.60;;;;;;;19.20;38.18;101104.71;102434;1332;73879;-82
2022/02/20 10:30:37;;;;;;;7.30;4.50;;;;;;;19.19;38.18;101101.69;102420;1333;72961;-85
2022/02/20 10:34:14;;;;;;;7.20;4.20;;;;;;;19.19;38.24;101106.02;102400;1333;60508;-84
2022/02/20 10:37:19;;;;;;;9.20;4.80;;;;;;;19.19;38.36;101106.36;102454;1330;61345;-85
2022/02/20 10:40:53;;;;;;;6.60;4.20;;;;;;;19.19;38.41;101102.09;102381;1333;72895;-84
2022/02/20 10:43:26;;;;;;;7.00;4.40;;;;;;;19.18;38.40;101099.79;101879;1337;73963;-82
2022/02/20 10:46:33;;;;;;;6.30;4.10;;;;;;;19.19;38.36;101096.35;102043;1338;61311;-78
2022/02/20 10:49:34;;;;;;;8.40;4.30;;;;;;;19.19;38.33;101091.36;102066;1338;60576;-81
2022/02/20 10:52:53;;;;;;;;;;;;;;;;;;;;;
2022/02/20 10:56:01;;;;;;;7.20;4.70;;;;;;;19.19;38.52;101081.02;101979;1338;75054;-82
2022/02/20 10:58:49;;;;;;;;;;;;;;;;;;;;;
2022/02/20 11:01:41;;;;;;;6.20;3.90;;;;;;;19.19;38.55;101074.58;102226;1335;60412;-81
2022/02/20 11:04:44;;;;;;;6.90;4.10;;;;;;;19.19;38.58;101068.17;102659;1329;74130;-87
2022/02/20 11:07:40;;;;;;;7.50;4.50;;;;;;;19.19;38.61;101063.17;102538;1332;73952;-84
2022/02/20 11:10:29;;;;;;;6.20;4.10;;;;;;;19.18;38.61;101056.60;102524;1331;60618;-85
2022/02/20 11:13:25;;;;;;;;;;;;;;;19.18;38.68;101057.85;102386;1332;61933;-82
2022/02/20 11:16:34;;;;;;;;;;;;;;;;;;;;;
2022/02/20 11:19:35;;;;;;;;;;;;;;;;;;;;;
2022/02/20 11:22:51;;;;;;;6.50;3.70;;;;;;;19.17;38.80;101057.58;103685;1319;61438;-82
2022/02/20 11:25:36;;;;;;;6.90;4.40;;;;;;;19.17;38.76;101050.28;104296;1312;60734;-84
2022/02/20 11:28:25;;;;;;;5.80;3.80;;;;;;;19.16;38.84;101046.73;104306;1312;74178;-80
2022/02/20 11:31:10;;;;;;;6.30;3.70;;;;;;;19.16;38.81;101035.33;104298;1309;75042;-82
2022/02/20 11:34:42;;;;;;;6.80;4.10;;;;;;;19.16;38.86;101029.09;104208;1309;60403;-81
2022/02/20 11:37:22;;;;;;;7.20;3.80;;;;;;;19.16;39.04;101016.80;103756;1318;60332;-82
2022/02/20 11:40:12;;;;;;;6.60;4.00;;;;;;;19.16;38.99;101011.09;103952;1318;73685;-84
2022/02/20 11:43:41;;;;;;;6.10;3.80;;;;;;;19.16;38.78;101013.76;103955;1318;74134;-83
2022/02/20 11:46:15;;;;;;;6.20;4.00;;;;;;;19.15;38.92;101015.95;104315;1314;60568;-85
2022/02/20 11:49:05;;;;;;;8.50;4.20;;;;;;;19.15;38.79;101010.02;104206;1315;60745;-83
2022/02/20 11:51:54;;;;;;;6.30;4.10;;;;;;;19.15;39.00;101001.48;104303;1313;72756;-83
2022/02/20 11:54:40;;;;;;;;;;;;;;;;;;;;;
2022/02/20 11:57:35;;;;;;;7.20;4.10;;;;;;;19.14;39.04;100988.70;104294;1314;61292;-82
2022/02/20 12:00:24;;;;;;;7.40;4.20;;;;;;;19.15;39.11;100985.27;104310;1315;60505;-83
2022/02/20 12:03:40;;;;;;;;;;;;;;;;;;;;;
2022/02/20 12:06:33;;;;;;;6.40;3.90;;;;;;;19.14;39.02;100990.88;103862;1318;73876;-81
2022/02/20 12:09:29;;;;;;;7.50;3.90;;;;;;;19.13;39.08;100986.42;103204;1324;61162;-84
2022/02/20 12:12:06;;;;;;;6.80;3.70;;;;;;;19.14;39.06;100980.34;103043;1324;61476;-83
2022/02/20 12:15:01;;;;;;;5.70;4.00;;;;;;;19.14;39.14;100984.10;103381;1318;73266;-84
2022/02/20 12:18:26;;;;;;;6.80;4.10;;;;;;;19.14;39.11;100980.88;103068;1323;75252;-84
2022/02/20 12:21:15;;;;;;;6.30;3.60;;;;;;;19.13;39.16;100971.81;103024;1324;60593;-81
2022/02/20 12:24:33;;;;;;;6.60;4.10;;;;;;;19.14;39.20;100967.67;103201;1323;60740;-82
2022/02/20 12:27:59;;;;;;;6.00;4.00;;;;;;;19.13;39.14;100957.20;102627;1330;72831;-82
2022/02/20 12:30:54;;;;;;;6.20;4.00;;;;;;;19.14;39.25;100955.71;102732;1330;72924;-83
2022/02/20 12:33:58;;;;;;;6.40;3.90;;;;;;;19.14;39.19;100952.69;102679;1329;60656;-86
2022/02/20 12:36:49;;;;;;;5.80;3.80;;;;;;;19.14;39.21;100942.88;102563;1330;61867;-82
2022/02/20 12:39:41;;;;;;;6.70;4.20;;;;;;;19.14;39.22;100941.27;102593;1329;72929;-83
2022/02/20 12:42:21;;;;;;;6.50;4.30;;;;;;;19.14;39.19;100939.30;102738;1325;74022;-83
2022/02/20 12:46:04;;;;;;;5.60;4.00;;;;;;;19.14;39.28;100946.41;103065;1324;61764;-88
2022/02/20 12:48:47;;;;;;;;;;;;;;;;;;;;;
2022/02/20 12:51:59;;;;;;;5.70;3.90;;;;;;;19.13;39.35;100947.54;102782;1326;72886;-81
2022/02/20 12:54:54;;;;;;;7.70;4.30;;;;;;;19.13;39.28;100945.40;102819;1324;75162;-83
2022/02/20 12:57:43;;;;;;;6.40;3.70;;;;;;;19.13;39.35;100942.91;103240;1323;61515;-86
2022/02/20 13:00:45;;;;;;;5.90;3.90;;;;;;;19.14;39.39;100942.17;102643;1326;60413;-82
2022/02/20 13:03:25;;;;;;;5.40;3.80;;;;;;;19.13;39.37;100940.77;102761;1324;72820;-82
2022/02/20 13:06:00;;;;;;;6.60;3.80;;;;;;;19.14;39.41;100944.67;102664;1324;74007;-81
2022/02/20 13:08:53;;;;;;;6.30;3.80;;;;;;;19.14;39.40;100943.23;102787;1324;60354;-80
2022/02/20 13:11:52;;;;;;;;;;;;;;;;;;;;;
2022/02/20 13:14:21;;;;;;;5.90;3.80;;;;;;;19.15;39.46;100941.59;102871;1323;73916;-81
2022/02/20 13:17:05;;;;;;;5.40;3.80;;;;;;;19.14;39.41;100943.20;102708;1324;74833;-81
2022/02/20 13:19:53;;;;;;;6.90;3.90;;;;;;;19.15;39.37;100945.86;102795;1323;61382;-78
2022/02/20 13:22:47;;;;;;;5.60;3.80;;;;;;;19.14;39.39;100948.39;102820;1323;60518;-80
2022/02/20 13:25:33;;;;;;;6.20;3.80;;;;;;;19.14;39.42;100948.19;102455;1326;72666;-79
2022/02/20 13:28:15;;;;;;;6.30;3.90;;;;;;;19.14;39.48;100942.11;102621;1326;75543;-78
2022/02/20 13:31:18;;;;;;;6.50;3.80;;;;;;;19.15;39.40;100944.95;102736;1324;61295;-82
2022/02/20 13:33:53;;;;;;;6.20;3.70;;;;;;;19.14;39.44;100941.77;103031;1320;60594;-81
2022/02/20 13:36:35;;;;;;;6.50;3.80;;;;;;;19.15;39.42;100946.56;103391;1320;71772;-80
2022/02/20 13:39:32;;;;;;;7.00;4.30;;;;;;;19.15;39.51;100944.61;103742;1315;74207;-80
2022/02/20 13:42:21;;;;;;;6.30;3.90;;;;;;;19.14;39.50;100938.02;104070;1314;60788;-80
2022/02/20 13:45:12;;;;;;;5.80;3.90;;;;;;;19.15;39.46;100941.23;103936;1313;60603;-80
2022/02/20 13:47:50;;;;;;;7.10;3.80;;;;;;;19.14;39.60;100939.09;104101;1314;73689;-82
2022/02/20 13:50:39;;;;;;;6.50;3.60;;;;;;;19.15;39.51;100940.48;104156;1314;75006;-83
2022/02/20 13:53:30;;;;;;;6.10;3.60;;;;;;;19.14;39.56;100937.88;104050;1314;60584;-83
2022/02/20 13:57:01;;;;;;;7.30;4.00;;;;;;;19.14;39.48;100932.70;103456;1319;60453;-85
2022/02/20 13:59:49;;;;;;;7.00;3.80;;;;;;;19.13;39.43;100931.30;102743;1325;72803;-84
2022/02/20 14:02:58;;;;;;;6.80;3.90;;;;;;;19.12;39.52;100933.86;102898;1322;75223;-79
2022/02/20 14:06:05;;;;;;;;;;;;;;;;;;;;;
2022/02/20 14:08:55;;;;;;;6.80;3.90;;;;;;;19.12;39.58;100923.55;102521;1332;60419;-78
2022/02/20 14:11:41;;;;;;;6.00;3.90;;;;;;;19.12;39.57;100920.88;102327;1332;73691;-81
2022/02/20 14:14:33;;;;;;;;;;;;;;;;;;;;;
2022/02/20 14:18:09;;;;;;;7.70;4.40;;;;;;;19.11;39.59;100919.45;102037;1336;60374;-82
2022/02/20 14:21:18;;;;;;;6.80;4.20;;;;;;;19.12;39.60;100923.04;101953;1338;60512;-83
2022/02/20 14:24:08;;;;;;;6.60;3.80;;;;;;;19.11;39.62;100921.79;102044;1337;72033;-83
2022/02/20 14:27:34;;;;;;;6.50;4.10;;;;;;;19.11;39.65;100921.98;102048;1337;74125;-82
2022/02/20 14:30:34;;;;;;;;;;;;;;;;;;;;;
2022/02/20 14:33:29;;;;;;;6.70;3.80;;;;;;;19.11;39.72;100920.73;101916;1337;61425;-79
2022/02/20 14:36:21;;;;;;;6.20;4.00;;;;;;;19.12;39.68;100925.15;102195;1332;73065;-81